sensor_id;sensor_type;location;lat;lon;timestamp;P1;durP1;ratioP1;P2;durP2;ratioP2
5847;SDS011;8756;49.29324300;8.70599800;2023-03-01T00:01:58;23.23;;;13.60;;
5847;SDS011;8756;49.29324300;8.70599800;2023-03-01T00:04:24;23.27;;;14.40;;
5847;SDS011;8756;49.29324300;8.70599800;2023-03-01T00:06:50;25.47;;;14.17;;
5847;SDS011;8756;49.29324300;8.70599800;2023-03-01T00:09:16;22.23;;;13.47;;
5847;SDS011;8756;49.29324300;8.70599800;2023-03-01T00:11:42;25.97;;;14.53;;
5847;SDS011;8756;49.29324300;8.70599800;2023-03-01T00:14:08;24.07;;;13.57;;
5847;SDS011;8756;49.29324300;8.70599800;2023-03-01T00:16:35;22.53;;;15.33;;
5847;SDS011;8756;49.29324300;8.70599800;2023-03-01T00:19:04;28.57;;;15.57;;
5847;SDS011;8756;49.29324300;8.70599800;2023-03-01T00:21:32;24.67;;;14.70;;
5847;SDS011;8756;49.29324300;8.70599800;2023-03-01T00:23:58;24.13;;;14.20;;
5847;SDS011;8756;49.29324300;8.70599800;2023-03-01T00:26:25;23.83;;;14.50;;
5847;SDS011;8756;49.29324300;8.70599800;2023-03-01T00:28:51;23.27;;;14.40;;
5847;SDS011;8756;49.29324300;8.70599800;2023-03-01T00:31:19;28.07;;;15.50;;
5847;SDS011;8756;49.29324300;8.70599800;2023-03-01T00:33:47;24.17;;;15.03;;
5847;SDS011;8756;49.29324300;8.70599800;2023-03-01T00:36:14;23.30;;;13.97;;
5847;SDS011;8756;49.29324300;8.70599800;2023-03-01T00:38:42;28.57;;;14.30;;
5847;SDS011;8756;49.29324300;8.70599800;2023-03-01T00:41:10;22.57;;;13.47;;
5847;SDS011;8756;49.29324300;8.70599800;2023-03-01T00:43:41;24.77;;;14.93;;
5847;SDS011;8756;49.29324300;8.70599800;2023-03-01T00:46:09;23.83;;;14.53;;
5847;SDS011;8756;49.29324300;8.70599800;2023-03-01T00:48:39;23.93;;;15.30;;
5847;SDS011;8756;49.29324300;8.70599800;2023-03-01T00:51:12;28.77;;;14.57;;
5847;SDS011;8756;49.29324300;8.70599800;2023-03-01T00:53:45;27.27;;;15.43;;
5847;SDS011;8756;49.29324300;8.70599800;2023-03-01T00:56:12;24.33;;;15.03;;
5847;SDS011;8756;49.29324300;8.70599800;2023-03-01T00:58:39;26.70;;;14.67;;
5847;SDS011;8756;49.29324300;8.70599800;2023-03-01T01:01:09;24.33;;;14.30;;
5847;SDS011;8756;49.29324300;8.70599800;2023-03-01T01:03:50;27.67;;;15.27;;
5847;SDS011;8756;49.29324300;8.70599800;2023-03-01T01:06:22;23.70;;;14.43;;
5847;SDS011;8756;49.29324300;8.70599800;2023-03-01T01:08:54;26.70;;;14.93;;
5847;SDS011;8756;49.29324300;8.70599800;2023-03-01T01:11:22;22.57;;;13.63;;
5847;SDS011;8756;49.29324300;8.70599800;2023-03-01T01:13:51;24.20;;;15.20;;
5847;SDS011;8756;49.29324300;8.70599800;2023-03-01T01:16:18;27.70;;;15.17;;
5847;SDS011;8756;49.29324300;8.70599800;2023-03-01T01:18:46;27.90;;;15.40;;
5847;SDS011;8756;49.29324300;8.70599800;2023-03-01T01:21:14;26.33;;;14.53;;
5847;SDS011;8756;49.29324300;8.70599800;2023-03-01T01:23:42;25.77;;;15.30;;
5847;SDS011;8756;49.29324300;8.70599800;2023-03-01T01:26:10;27.40;;;16.40;;
5847;SDS011;8756;49.29324300;8.70599800;2023-03-01T01:28:50;25.13;;;14.60;;
5847;SDS011;8756;49.29324300;8.70599800;2023-03-01T01:31:17;25.63;;;15.20;;
5847;SDS011;8756;49.29324300;8.70599800;2023-03-01T01:33:44;27.67;;;15.97;;
5847;SDS011;8756;49.29324300;8.70599800;2023-03-01T01:36:10;29.33;;;15.97;;
5847;SDS011;8756;49.29324300;8.70599800;2023-03-01T01:38:37;30.93;;;14.90;;
5847;SDS011;8756;49.29324300;8.70599800;2023-03-01T01:41:03;32.33;;;15.80;;
5847;SDS011;8756;49.29324300;8.70599800;2023-03-01T01:43:35;28.10;;;15.53;;
5847;SDS011;8756;49.29324300;8.70599800;2023-03-01T01:46:53;27.63;;;16.07;;
5847;SDS011;8756;49.29324300;8.70599800;2023-03-01T01:48:58;26.70;;;14.93;;
5847;SDS011;8756;49.29324300;8.70599800;2023-03-01T01:51:29;27.47;;;16.63;;
5847;SDS011;8756;49.29324300;8.70599800;2023-03-01T01:54:03;26.20;;;15.50;;
5847;SDS011;8756;49.29324300;8.70599800;2023-03-01T01:56:36;28.53;;;15.90;;
5847;SDS011;8756;49.29324300;8.70599800;2023-03-01T01:59:05;26.57;;;15.40;;
5847;SDS011;8756;49.29324300;8.70599800;2023-03-01T02:01:31;26.30;;;15.63;;
5847;SDS011;8756;49.29324300;8.70599800;2023-03-01T02:03:57;27.00;;;16.57;;
5847;SDS011;8756;49.29324300;8.70599800;2023-03-01T02:06:31;31.80;;;15.97;;
5847;SDS011;8756;49.29324300;8.70599800;2023-03-01T02:09:05;28.33;;;16.00;;
5847;SDS011;8756;49.29324300;8.70599800;2023-03-01T02:11:38;25.97;;;14.80;;
5847;SDS011;8756;49.29324300;8.70599800;2023-03-01T02:14:05;29.13;;;16.37;;
5847;SDS011;8756;49.29324300;8.70599800;2023-03-01T02:16:31;27.40;;;14.97;;
5847;SDS011;8756;49.29324300;8.70599800;2023-03-01T02:18:57;27.73;;;17.03;;
5847;SDS011;8756;49.29324300;8.70599800;2023-03-01T02:24:04;30.43;;;16.63;;
5847;SDS011;8756;49.29324300;8.70599800;2023-03-01T02:26:57;31.53;;;16.43;;
5847;SDS011;8756;49.29324300;8.70599800;2023-03-01T02:29:25;27.23;;;15.83;;
5847;SDS011;8756;49.29324300;8.70599800;2023-03-01T02:31:53;29.10;;;16.20;;
5847;SDS011;8756;49.29324300;8.70599800;2023-03-01T02:34:23;28.30;;;15.43;;
5847;SDS011;8756;49.29324300;8.70599800;2023-03-01T02:36:59;29.60;;;16.30;;
5847;SDS011;8756;49.29324300;8.70599800;2023-03-01T02:39:33;28.13;;;15.63;;
5847;SDS011;8756;49.29324300;8.70599800;2023-03-01T02:42:09;27.67;;;16.00;;
5847;SDS011;8756;49.29324300;8.70599800;2023-03-01T02:44:38;25.93;;;15.03;;
5847;SDS011;8756;49.29324300;8.70599800;2023-03-01T02:47:04;29.50;;;16.73;;
5847;SDS011;8756;49.29324300;8.70599800;2023-03-01T02:49:32;27.80;;;16.00;;
5847;SDS011;8756;49.29324300;8.70599800;2023-03-01T02:52:45;29.97;;;17.30;;
5847;SDS011;8756;49.29324300;8.70599800;2023-03-01T02:55:11;28.27;;;16.47;;
5847;SDS011;8756;49.29324300;8.70599800;2023-03-01T02:57:42;28.57;;;16.80;;
5847;SDS011;8756;49.29324300;8.70599800;2023-03-01T03:00:11;31.10;;;17.73;;
5847;SDS011;8756;49.29324300;8.70599800;2023-03-01T03:02:44;28.37;;;16.93;;
5847;SDS011;8756;49.29324300;8.70599800;2023-03-01T03:05:16;26.63;;;16.70;;
5847;SDS011;8756;49.29324300;8.70599800;2023-03-01T03:07:46;26.40;;;16.27;;
5847;SDS011;8756;49.29324300;8.70599800;2023-03-01T03:10:18;27.30;;;15.77;;
5847;SDS011;8756;49.29324300;8.70599800;2023-03-01T03:12:51;27.20;;;16.40;;
5847;SDS011;8756;49.29324300;8.70599800;2023-03-01T03:15:20;30.63;;;16.20;;
5847;SDS011;8756;49.29324300;8.70599800;2023-03-01T03:17:47;30.93;;;16.50;;
5847;SDS011;8756;49.29324300;8.70599800;2023-03-01T03:20:15;31.00;;;18.17;;
5847;SDS011;8756;49.29324300;8.70599800;2023-03-01T03:22:44;30.63;;;18.23;;
5847;SDS011;8756;49.29324300;8.70599800;2023-03-01T03:25:15;30.10;;;17.00;;
5847;SDS011;8756;49.29324300;8.70599800;2023-03-01T03:27:43;28.13;;;15.90;;
5847;SDS011;8756;49.29324300;8.70599800;2023-03-01T03:30:11;29.23;;;16.90;;
5847;SDS011;8756;49.29324300;8.70599800;2023-03-01T03:32:41;33.70;;;18.07;;
5847;SDS011;8756;49.29324300;8.70599800;2023-03-01T03:35:24;31.60;;;17.67;;
5847;SDS011;8756;49.29324300;8.70599800;2023-03-01T03:37:56;33.00;;;17.43;;
5847;SDS011;8756;49.29324300;8.70599800;2023-03-01T03:40:27;30.97;;;17.47;;
5847;SDS011;8756;49.29324300;8.70599800;2023-03-01T03:42:59;36.50;;;18.07;;
5847;SDS011;8756;49.29324300;8.70599800;2023-03-01T03:45:26;33.10;;;17.30;;
5847;SDS011;8756;49.29324300;8.70599800;2023-03-01T03:47:51;30.53;;;16.10;;
5847;SDS011;8756;49.29324300;8.70599800;2023-03-01T03:50:17;28.40;;;17.00;;
5847;SDS011;8756;49.29324300;8.70599800;2023-03-01T03:52:43;32.03;;;17.10;;
5847;SDS011;8756;49.29324300;8.70599800;2023-03-01T03:55:10;29.83;;;17.23;;
5847;SDS011;8756;49.29324300;8.70599800;2023-03-01T03:57:37;31.03;;;16.87;;
5847;SDS011;8756;49.29324300;8.70599800;2023-03-01T04:00:07;30.37;;;18.13;;
5847;SDS011;8756;49.29324300;8.70599800;2023-03-01T04:02:38;30.03;;;18.30;;
5847;SDS011;8756;49.29324300;8.70599800;2023-03-01T04:05:07;31.10;;;17.83;;
5847;SDS011;8756;49.29324300;8.70599800;2023-03-01T04:07:35;31.27;;;16.80;;
5847;SDS011;8756;49.29324300;8.70599800;2023-03-01T04:10:03;30.00;;;16.90;;
5847;SDS011;8756;49.29324300;8.70599800;2023-03-01T04:12:32;29.97;;;17.60;;
5847;SDS011;8756;49.29324300;8.70599800;2023-03-01T04:14:59;24.60;;;15.13;;
5847;SDS011;8756;49.29324300;8.70599800;2023-03-01T04:17:38;32.50;;;18.70;;
5847;SDS011;8756;49.29324300;8.70599800;2023-03-01T04:20:05;31.73;;;17.17;;
5847;SDS011;8756;49.29324300;8.70599800;2023-03-01T04:22:31;31.87;;;16.73;;
5847;SDS011;8756;49.29324300;8.70599800;2023-03-01T04:24:58;35.27;;;18.20;;
5847;SDS011;8756;49.29324300;8.70599800;2023-03-01T04:27:31;32.53;;;17.70;;
5847;SDS011;8756;49.29324300;8.70599800;2023-03-01T04:30:00;27.30;;;16.00;;
5847;SDS011;8756;49.29324300;8.70599800;2023-03-01T04:32:28;31.03;;;19.07;;
5847;SDS011;8756;49.29324300;8.70599800;2023-03-01T04:34:54;31.07;;;16.97;;
5847;SDS011;8756;49.29324300;8.70599800;2023-03-01T04:37:19;29.70;;;17.53;;
5847;SDS011;8756;49.29324300;8.70599800;2023-03-01T04:39:45;31.67;;;16.57;;
5847;SDS011;8756;49.29324300;8.70599800;2023-03-01T04:42:12;33.10;;;19.07;;
5847;SDS011;8756;49.29324300;8.70599800;2023-03-01T04:44:42;31.63;;;17.57;;
5847;SDS011;8756;49.29324300;8.70599800;2023-03-01T04:47:09;31.17;;;17.73;;
5847;SDS011;8756;49.29324300;8.70599800;2023-03-01T04:49:35;36.33;;;18.73;;
5847;SDS011;8756;49.29324300;8.70599800;2023-03-01T04:52:01;34.10;;;18.17;;
5847;SDS011;8756;49.29324300;8.70599800;2023-03-01T04:54:32;33.43;;;18.30;;
5847;SDS011;8756;49.29324300;8.70599800;2023-03-01T04:56:59;35.83;;;19.57;;
5847;SDS011;8756;49.29324300;8.70599800;2023-03-01T04:59:26;33.90;;;18.37;;
5847;SDS011;8756;49.29324300;8.70599800;2023-03-01T05:01:55;33.80;;;19.50;;
5847;SDS011;8756;49.29324300;8.70599800;2023-03-01T05:04:24;33.13;;;18.63;;
5847;SDS011;8756;49.29324300;8.70599800;2023-03-01T05:06:50;34.30;;;20.27;;
5847;SDS011;8756;49.29324300;8.70599800;2023-03-01T05:09:16;28.97;;;17.57;;
5847;SDS011;8756;49.29324300;8.70599800;2023-03-01T05:11:42;33.03;;;19.17;;
5847;SDS011;8756;49.29324300;8.70599800;2023-03-01T05:14:09;31.13;;;17.47;;
5847;SDS011;8756;49.29324300;8.70599800;2023-03-01T05:16:35;31.20;;;17.20;;
5847;SDS011;8756;49.29324300;8.70599800;2023-03-01T05:19:02;32.53;;;19.63;;
5847;SDS011;8756;49.29324300;8.70599800;2023-03-01T05:21:36;31.90;;;19.37;;
5847;SDS011;8756;49.29324300;8.70599800;2023-03-01T05:24:25;32.93;;;19.63;;
5847;SDS011;8756;49.29324300;8.70599800;2023-03-01T05:26:51;37.37;;;19.63;;
5847;SDS011;8756;49.29324300;8.70599800;2023-03-01T05:29:21;30.53;;;19.30;;
5847;SDS011;8756;49.29324300;8.70599800;2023-03-01T05:31:55;30.73;;;18.47;;
5847;SDS011;8756;49.29324300;8.70599800;2023-03-01T05:34:27;33.40;;;17.70;;
5847;SDS011;8756;49.29324300;8.70599800;2023-03-01T05:36:56;29.80;;;18.60;;
5847;SDS011;8756;49.29324300;8.70599800;2023-03-01T05:39:23;28.30;;;18.23;;
5847;SDS011;8756;49.29324300;8.70599800;2023-03-01T05:41:54;36.93;;;21.60;;
5847;SDS011;8756;49.29324300;8.70599800;2023-03-01T05:44:22;36.80;;;19.20;;
5847;SDS011;8756;49.29324300;8.70599800;2023-03-01T05:46:48;32.50;;;17.97;;
5847;SDS011;8756;49.29324300;8.70599800;2023-03-01T05:49:14;31.20;;;18.87;;
5847;SDS011;8756;49.29324300;8.70599800;2023-03-01T05:51:41;35.27;;;18.10;;
5847;SDS011;8756;49.29324300;8.70599800;2023-03-01T05:54:09;35.20;;;18.13;;
5847;SDS011;8756;49.29324300;8.70599800;2023-03-01T05:56:35;34.30;;;20.33;;
5847;SDS011;8756;49.29324300;8.70599800;2023-03-01T05:59:02;36.40;;;19.70;;
5847;SDS011;8756;49.29324300;8.70599800;2023-03-01T06:01:30;34.67;;;19.70;;
5847;SDS011;8756;49.29324300;8.70599800;2023-03-01T06:03:57;31.47;;;18.50;;
5847;SDS011;8756;49.29324300;8.70599800;2023-03-01T06:06:23;38.03;;;19.67;;
5847;SDS011;8756;49.29324300;8.70599800;2023-03-01T06:08:52;36.50;;;18.97;;
5847;SDS011;8756;49.29324300;8.70599800;2023-03-01T06:11:19;36.30;;;20.13;;
5847;SDS011;8756;49.29324300;8.70599800;2023-03-01T06:13:46;35.23;;;18.57;;
5847;SDS011;8756;49.29324300;8.70599800;2023-03-01T06:16:12;36.97;;;18.70;;
5847;SDS011;8756;49.29324300;8.70599800;2023-03-01T06:18:39;37.37;;;19.27;;
5847;SDS011;8756;49.29324300;8.70599800;2023-03-01T06:21:05;35.30;;;21.00;;
5847;SDS011;8756;49.29324300;8.70599800;2023-03-01T06:23:32;37.13;;;18.83;;
5847;SDS011;8756;49.29324300;8.70599800;2023-03-01T06:25:59;31.97;;;19.90;;
5847;SDS011;8756;49.29324300;8.70599800;2023-03-01T06:28:26;37.13;;;20.10;;
5847;SDS011;8756;49.29324300;8.70599800;2023-03-01T06:30:51;37.17;;;19.43;;
5847;SDS011;8756;49.29324300;8.70599800;2023-03-01T06:33:18;34.17;;;18.40;;
5847;SDS011;8756;49.29324300;8.70599800;2023-03-01T06:35:45;35.60;;;20.40;;
5847;SDS011;8756;49.29324300;8.70599800;2023-03-01T06:38:11;36.67;;;20.20;;
5847;SDS011;8756;49.29324300;8.70599800;2023-03-01T06:40:39;33.03;;;19.90;;
5847;SDS011;8756;49.29324300;8.70599800;2023-03-01T06:43:06;33.63;;;18.40;;
5847;SDS011;8756;49.29324300;8.70599800;2023-03-01T06:45:32;36.50;;;19.70;;
5847;SDS011;8756;49.29324300;8.70599800;2023-03-01T06:48:03;34.67;;;19.50;;
5847;SDS011;8756;49.29324300;8.70599800;2023-03-01T06:50:31;39.70;;;20.70;;
5847;SDS011;8756;49.29324300;8.70599800;2023-03-01T06:52:57;35.83;;;21.60;;
5847;SDS011;8756;49.29324300;8.70599800;2023-03-01T06:55:23;34.63;;;18.87;;
5847;SDS011;8756;49.29324300;8.70599800;2023-03-01T06:57:53;36.17;;;20.47;;
5847;SDS011;8756;49.29324300;8.70599800;2023-03-01T07:00:26;37.10;;;21.60;;
5847;SDS011;8756;49.29324300;8.70599800;2023-03-01T07:02:53;36.30;;;19.53;;
5847;SDS011;8756;49.29324300;8.70599800;2023-03-01T07:05:19;39.10;;;21.13;;
5847;SDS011;8756;49.29324300;8.70599800;2023-03-01T07:07:46;32.17;;;19.80;;
5847;SDS011;8756;49.29324300;8.70599800;2023-03-01T07:10:12;34.47;;;19.77;;
5847;SDS011;8756;49.29324300;8.70599800;2023-03-01T07:12:38;37.90;;;18.27;;
5847;SDS011;8756;49.29324300;8.70599800;2023-03-01T07:15:04;39.03;;;18.50;;
5847;SDS011;8756;49.29324300;8.70599800;2023-03-01T07:17:30;35.47;;;19.00;;
5847;SDS011;8756;49.29324300;8.70599800;2023-03-01T07:19:56;38.53;;;19.70;;
5847;SDS011;8756;49.29324300;8.70599800;2023-03-01T07:22:22;35.87;;;19.80;;
5847;SDS011;8756;49.29324300;8.70599800;2023-03-01T07:24:48;35.27;;;19.10;;
5847;SDS011;8756;49.29324300;8.70599800;2023-03-01T07:27:14;36.30;;;19.80;;
5847;SDS011;8756;49.29324300;8.70599800;2023-03-01T07:29:39;34.13;;;19.37;;
5847;SDS011;8756;49.29324300;8.70599800;2023-03-01T07:32:05;34.43;;;20.53;;
5847;SDS011;8756;49.29324300;8.70599800;2023-03-01T07:34:31;34.90;;;19.50;;
5847;SDS011;8756;49.29324300;8.70599800;2023-03-01T07:36:57;37.27;;;20.53;;
5847;SDS011;8756;49.29324300;8.70599800;2023-03-01T07:39:23;36.90;;;20.40;;
5847;SDS011;8756;49.29324300;8.70599800;2023-03-01T07:41:49;33.87;;;19.03;;
5847;SDS011;8756;49.29324300;8.70599800;2023-03-01T07:44:15;37.60;;;18.67;;
5847;SDS011;8756;49.29324300;8.70599800;2023-03-01T07:46:42;33.57;;;18.97;;
5847;SDS011;8756;49.29324300;8.70599800;2023-03-01T07:49:08;37.40;;;19.73;;
5847;SDS011;8756;49.29324300;8.70599800;2023-03-01T07:51:34;34.73;;;19.67;;
5847;SDS011;8756;49.29324300;8.70599800;2023-03-01T07:54:00;33.73;;;19.30;;
5847;SDS011;8756;49.29324300;8.70599800;2023-03-01T07:56:26;35.93;;;19.77;;
5847;SDS011;8756;49.29324300;8.70599800;2023-03-01T07:58:51;34.73;;;19.57;;
5847;SDS011;8756;49.29324300;8.70599800;2023-03-01T08:01:18;38.77;;;20.17;;
5847;SDS011;8756;49.29324300;8.70599800;2023-03-01T08:03:45;40.50;;;21.67;;
5847;SDS011;8756;49.29324300;8.70599800;2023-03-01T08:06:12;34.40;;;19.50;;
5847;SDS011;8756;49.29324300;8.70599800;2023-03-01T08:08:40;37.23;;;20.90;;
5847;SDS011;8756;49.29324300;8.70599800;2023-03-01T08:11:06;37.30;;;21.27;;
5847;SDS011;8756;49.29324300;8.70599800;2023-03-01T08:13:34;38.20;;;20.20;;
5847;SDS011;8756;49.29324300;8.70599800;2023-03-01T08:16:00;35.17;;;20.77;;
5847;SDS011;8756;49.29324300;8.70599800;2023-03-01T08:18:34;37.63;;;19.80;;
5847;SDS011;8756;49.29324300;8.70599800;2023-03-01T08:21:01;33.73;;;19.77;;
5847;SDS011;8756;49.29324300;8.70599800;2023-03-01T08:23:31;36.27;;;18.67;;
5847;SDS011;8756;49.29324300;8.70599800;2023-03-01T08:26:04;42.20;;;19.97;;
5847;SDS011;8756;49.29324300;8.70599800;2023-03-01T08:28:39;31.90;;;19.20;;
5847;SDS011;8756;49.29324300;8.70599800;2023-03-01T08:31:21;34.10;;;22.07;;
5847;SDS011;8756;49.29324300;8.70599800;2023-03-01T08:34:00;39.20;;;22.40;;
5847;SDS011;8756;49.29324300;8.70599800;2023-03-01T08:36:30;37.37;;;20.57;;
5847;SDS011;8756;49.29324300;8.70599800;2023-03-01T08:38:58;33.73;;;18.20;;
5847;SDS011;8756;49.29324300;8.70599800;2023-03-01T08:41:24;38.80;;;18.60;;
5847;SDS011;8756;49.29324300;8.70599800;2023-03-01T08:43:50;36.63;;;19.97;;
5847;SDS011;8756;49.29324300;8.70599800;2023-03-01T08:46:17;33.53;;;21.77;;
5847;SDS011;8756;49.29324300;8.70599800;2023-03-01T08:48:43;35.13;;;21.10;;
5847;SDS011;8756;49.29324300;8.70599800;2023-03-01T08:53:43;35.60;;;20.07;;
5847;SDS011;8756;49.29324300;8.70599800;2023-03-01T08:56:10;34.93;;;19.87;;
5847;SDS011;8756;49.29324300;8.70599800;2023-03-01T08:58:36;40.27;;;21.97;;
5847;SDS011;8756;49.29324300;8.70599800;2023-03-01T09:01:08;38.00;;;21.70;;
5847;SDS011;8756;49.29324300;8.70599800;2023-03-01T09:03:35;36.40;;;20.07;;
5847;SDS011;8756;49.29324300;8.70599800;2023-03-01T09:06:02;37.20;;;18.77;;
5847;SDS011;8756;49.29324300;8.70599800;2023-03-01T09:08:29;40.90;;;20.37;;
5847;SDS011;8756;49.29324300;8.70599800;2023-03-01T09:10:55;34.97;;;20.03;;
5847;SDS011;8756;49.29324300;8.70599800;2023-03-01T09:13:21;37.17;;;21.50;;
5847;SDS011;8756;49.29324300;8.70599800;2023-03-01T09:15:49;39.73;;;19.00;;
5847;SDS011;8756;49.29324300;8.70599800;2023-03-01T09:18:15;38.60;;;20.53;;
5847;SDS011;8756;49.29324300;8.70599800;2023-03-01T09:20:41;37.37;;;23.33;;
5847;SDS011;8756;49.29324300;8.70599800;2023-03-01T09:23:06;38.67;;;20.60;;
5847;SDS011;8756;49.29324300;8.70599800;2023-03-01T09:25:33;33.80;;;19.23;;
5847;SDS011;8756;49.29324300;8.70599800;2023-03-01T09:27:59;36.83;;;22.40;;
5847;SDS011;8756;49.29324300;8.70599800;2023-03-01T09:30:25;36.10;;;20.47;;
5847;SDS011;8756;49.29324300;8.70599800;2023-03-01T09:32:51;40.17;;;21.57;;
5847;SDS011;8756;49.29324300;8.70599800;2023-03-01T09:35:17;36.23;;;19.73;;
5847;SDS011;8756;49.29324300;8.70599800;2023-03-01T09:37:44;33.93;;;19.73;;
5847;SDS011;8756;49.29324300;8.70599800;2023-03-01T09:40:15;34.90;;;20.30;;
5847;SDS011;8756;49.29324300;8.70599800;2023-03-01T09:42:53;37.30;;;20.07;;
5847;SDS011;8756;49.29324300;8.70599800;2023-03-01T09:45:45;35.33;;;21.20;;
5847;SDS011;8756;49.29324300;8.70599800;2023-03-01T09:48:16;33.23;;;20.07;;
5847;SDS011;8756;49.29324300;8.70599800;2023-03-01T09:50:46;38.13;;;20.40;;
5847;SDS011;8756;49.29324300;8.70599800;2023-03-01T09:53:13;39.20;;;21.10;;
5847;SDS011;8756;49.29324300;8.70599800;2023-03-01T09:55:44;35.97;;;21.07;;
5847;SDS011;8756;49.29324300;8.70599800;2023-03-01T09:58:37;35.13;;;19.30;;
5847;SDS011;8756;49.29324300;8.70599800;2023-03-01T10:07:14;35.40;;;19.30;;
5847;SDS011;8756;49.29324300;8.70599800;2023-03-01T10:10:10;33.40;;;19.07;;
5847;SDS011;8756;49.29324300;8.70599800;2023-03-01T10:12:52;36.40;;;21.53;;
5847;SDS011;8756;49.29324300;8.70599800;2023-03-01T10:15:19;38.50;;;21.40;;
5847;SDS011;8756;49.29324300;8.70599800;2023-03-01T10:18:03;39.13;;;20.93;;
5847;SDS011;8756;49.29324300;8.70599800;2023-03-01T10:23:17;38.37;;;21.87;;
5847;SDS011;8756;49.29324300;8.70599800;2023-03-01T10:31:40;36.77;;;20.77;;
5847;SDS011;8756;49.29324300;8.70599800;2023-03-01T10:34:18;34.47;;;18.87;;
5847;SDS011;8756;49.29324300;8.70599800;2023-03-01T10:36:55;35.33;;;19.00;;
5847;SDS011;8756;49.29324300;8.70599800;2023-03-01T10:39:29;30.83;;;18.63;;
5847;SDS011;8756;49.29324300;8.70599800;2023-03-01T10:42:05;37.30;;;19.87;;
5847;SDS011;8756;49.29324300;8.70599800;2023-03-01T10:44:55;34.93;;;20.50;;
5847;SDS011;8756;49.29324300;8.70599800;2023-03-01T10:47:25;32.77;;;18.60;;
5847;SDS011;8756;49.29324300;8.70599800;2023-03-01T10:50:25;34.43;;;19.50;;
5847;SDS011;8756;49.29324300;8.70599800;2023-03-01T10:52:57;33.57;;;19.57;;
5847;SDS011;8756;49.29324300;8.70599800;2023-03-01T10:55:36;32.73;;;18.70;;
5847;SDS011;8756;49.29324300;8.70599800;2023-03-01T11:00:47;39.00;;;19.93;;
5847;SDS011;8756;49.29324300;8.70599800;2023-03-01T11:03:18;31.70;;;18.40;;
5847;SDS011;8756;49.29324300;8.70599800;2023-03-01T11:05:53;35.50;;;18.20;;
5847;SDS011;8756;49.29324300;8.70599800;2023-03-01T11:08:31;38.03;;;20.33;;
5847;SDS011;8756;49.29324300;8.70599800;2023-03-01T11:11:03;35.30;;;18.97;;
5847;SDS011;8756;49.29324300;8.70599800;2023-03-01T11:13:52;34.13;;;19.60;;
5847;SDS011;8756;49.29324300;8.70599800;2023-03-01T11:16:24;33.63;;;18.50;;
5847;SDS011;8756;49.29324300;8.70599800;2023-03-01T11:18:57;31.77;;;17.30;;
5847;SDS011;8756;49.29324300;8.70599800;2023-03-01T11:21:27;36.80;;;19.57;;
5847;SDS011;8756;49.29324300;8.70599800;2023-03-01T11:23:56;29.60;;;19.23;;
5847;SDS011;8756;49.29324300;8.70599800;2023-03-01T11:26:26;30.70;;;17.47;;
5847;SDS011;8756;49.29324300;8.70599800;2023-03-01T11:28:54;33.60;;;18.57;;
5847;SDS011;8756;49.29324300;8.70599800;2023-03-01T11:31:23;32.80;;;18.47;;
5847;SDS011;8756;49.29324300;8.70599800;2023-03-01T11:33:53;35.17;;;20.20;;
5847;SDS011;8756;49.29324300;8.70599800;2023-03-01T11:36:58;33.40;;;19.27;;
5847;SDS011;8756;49.29324300;8.70599800;2023-03-01T11:42:25;37.53;;;19.97;;
5847;SDS011;8756;49.29324300;8.70599800;2023-03-01T11:45:06;32.30;;;18.17;;
5847;SDS011;8756;49.29324300;8.70599800;2023-03-01T11:51:00;31.03;;;17.20;;
5847;SDS011;8756;49.29324300;8.70599800;2023-03-01T11:56:19;32.50;;;18.90;;
5847;SDS011;8756;49.29324300;8.70599800;2023-03-01T11:58:54;31.27;;;18.60;;
5847;SDS011;8756;49.29324300;8.70599800;2023-03-01T12:01:51;30.73;;;18.57;;
5847;SDS011;8756;49.29324300;8.70599800;2023-03-01T12:11:01;32.07;;;18.27;;
5847;SDS011;8756;49.29324300;8.70599800;2023-03-01T12:16:34;32.07;;;17.80;;
5847;SDS011;8756;49.29324300;8.70599800;2023-03-01T12:19:33;32.87;;;17.37;;
5847;SDS011;8756;49.29324300;8.70599800;2023-03-01T12:25:06;28.20;;;17.97;;
5847;SDS011;8756;49.29324300;8.70599800;2023-03-01T12:27:50;32.50;;;18.37;;
5847;SDS011;8756;49.29324300;8.70599800;2023-03-01T12:30:51;29.97;;;16.67;;
5847;SDS011;8756;49.29324300;8.70599800;2023-03-01T12:42:54;35.17;;;18.60;;
5847;SDS011;8756;49.29324300;8.70599800;2023-03-01T12:45:54;28.53;;;16.70;;
5847;SDS011;8756;49.29324300;8.70599800;2023-03-01T12:49:00;28.80;;;16.70;;
5847;SDS011;8756;49.29324300;8.70599800;2023-03-01T12:51:34;30.63;;;18.27;;
5847;SDS011;8756;49.29324300;8.70599800;2023-03-01T12:54:16;32.30;;;17.60;;
5847;SDS011;8756;49.29324300;8.70599800;2023-03-01T12:56:52;27.63;;;15.63;;
5847;SDS011;8756;49.29324300;8.70599800;2023-03-01T12:59:23;33.40;;;17.80;;
5847;SDS011;8756;49.29324300;8.70599800;2023-03-01T13:02:52;28.47;;;15.83;;
5847;SDS011;8756;49.29324300;8.70599800;2023-03-01T13:12:42;27.20;;;14.50;;
5847;SDS011;8756;49.29324300;8.70599800;2023-03-01T13:17:59;35.47;;;14.97;;
5847;SDS011;8756;49.29324300;8.70599800;2023-03-01T13:33:48;32.60;;;18.10;;
5847;SDS011;8756;49.29324300;8.70599800;2023-03-01T13:38:59;28.00;;;16.20;;
5847;SDS011;8756;49.29324300;8.70599800;2023-03-01T13:47:15;26.63;;;14.50;;
5847;SDS011;8756;49.29324300;8.70599800;2023-03-01T13:49:50;28.30;;;17.20;;
5847;SDS011;8756;49.29324300;8.70599800;2023-03-01T13:54:56;28.73;;;16.03;;
5847;SDS011;8756;49.29324300;8.70599800;2023-03-01T13:57:24;28.33;;;15.53;;
5847;SDS011;8756;49.29324300;8.70599800;2023-03-01T13:59:58;28.60;;;16.33;;
5847;SDS011;8756;49.29324300;8.70599800;2023-03-01T14:02:23;29.10;;;17.50;;
5847;SDS011;8756;49.29324300;8.70599800;2023-03-01T14:04:56;30.80;;;15.73;;
5847;SDS011;8756;49.29324300;8.70599800;2023-03-01T14:07:26;26.30;;;15.03;;
5847;SDS011;8756;49.29324300;8.70599800;2023-03-01T14:10:03;29.07;;;17.00;;
5847;SDS011;8756;49.29324300;8.70599800;2023-03-01T14:15:27;28.27;;;16.60;;
5847;SDS011;8756;49.29324300;8.70599800;2023-03-01T14:18:12;27.13;;;15.63;;
5847;SDS011;8756;49.29324300;8.70599800;2023-03-01T14:20:50;30.40;;;16.80;;
5847;SDS011;8756;49.29324300;8.70599800;2023-03-01T14:23:20;25.63;;;14.53;;
5847;SDS011;8756;49.29324300;8.70599800;2023-03-01T14:25:52;31.03;;;16.07;;
5847;SDS011;8756;49.29324300;8.70599800;2023-03-01T14:28:21;31.23;;;16.73;;
5847;SDS011;8756;49.29324300;8.70599800;2023-03-01T14:31:01;29.23;;;16.73;;
5847;SDS011;8756;49.29324300;8.70599800;2023-03-01T14:38:33;29.30;;;16.63;;
5847;SDS011;8756;49.29324300;8.70599800;2023-03-01T14:41:13;27.43;;;14.87;;
5847;SDS011;8756;49.29324300;8.70599800;2023-03-01T14:43:46;28.20;;;15.73;;
5847;SDS011;8756;49.29324300;8.70599800;2023-03-01T14:46:20;30.37;;;16.03;;